sensor_id;sensor_type;location;lat;lon;timestamp;P1;durP1;ratioP1;P2;durP2;ratioP2
1887;SDS011;944;51.574;6.980;2024-03-07T06:02:21;64.20;;;37.27;;
1887;SDS011;944;51.574;6.980;2024-03-07T06:04:48;71.07;;;37.90;;
1887;SDS011;944;51.574;6.980;2024-03-07T07:58:40;45.60;;;24.73;;
1887;SDS011;944;51.574;6.980;2024-03-07T08:01:07;36.10;;;23.83;;
1887;SDS011;944;51.574;6.980;2024-03-07T08:03:35;45.60;;;26.40;;
1887;SDS011;944;51.574;6.980;2024-03-07T08:09:47;44.37;;;25.30;;
1887;SDS011;944;51.574;6.980;2024-03-07T08:12:15;42.40;;;25.17;;
1887;SDS011;944;51.574;6.980;2024-03-07T08:14:42;40.87;;;23.83;;
1887;SDS011;944;51.574;6.980;2024-03-07T08:20:51;39.60;;;25.80;;
1887;SDS011;944;51.574;6.980;2024-03-07T08:23:18;37.77;;;24.17;;
1887;SDS011;944;51.574;6.980;2024-03-07T08:25:50;37.53;;;23.60;;
1887;SDS011;944;51.574;6.980;2024-03-07T08:35:08;37.70;;;23.20;;
1887;SDS011;944;51.574;6.980;2024-03-07T08:37:37;34.37;;;22.70;;
1887;SDS011;944;51.574;6.980;2024-03-07T08:43:50;38.33;;;22.57;;
1887;SDS011;944;51.574;6.980;2024-03-07T08:46:26;35.17;;;22.33;;
1887;SDS011;944;51.574;6.980;2024-03-07T08:48:54;37.33;;;22.23;;
1887;SDS011;944;51.574;6.980;2024-03-07T08:51:22;36.90;;;23.47;;
1887;SDS011;944;51.574;6.980;2024-03-07T08:56:47;39.60;;;22.77;;
1887;SDS011;944;51.574;6.980;2024-03-07T08:59:14;41.60;;;23.43;;
1887;SDS011;944;51.574;6.980;2024-03-07T09:01:44;42.70;;;23.00;;
1887;SDS011;944;51.574;6.980;2024-03-07T09:04:11;43.23;;;26.30;;
1887;SDS011;944;51.574;6.980;2024-03-07T09:06:39;36.73;;;24.13;;
1887;SDS011;944;51.574;6.980;2024-03-07T09:09:06;43.53;;;24.60;;
1887;SDS011;944;51.574;6.980;2024-03-07T09:11:34;42.77;;;23.30;;
1887;SDS011;944;51.574;6.980;2024-03-07T09:14:01;40.87;;;23.07;;
1887;SDS011;944;51.574;6.980;2024-03-07T09:16:32;37.17;;;23.33;;
1887;SDS011;944;51.574;6.980;2024-03-07T09:19:03;41.17;;;24.37;;
1887;SDS011;944;51.574;6.980;2024-03-07T09:21:33;39.13;;;22.73;;
1887;SDS011;944;51.574;6.980;2024-03-07T09:24:01;40.27;;;24.60;;
1887;SDS011;944;51.574;6.980;2024-03-07T09:26:29;42.60;;;24.70;;
1887;SDS011;944;51.574;6.980;2024-03-07T09:28:58;37.83;;;23.07;;
1887;SDS011;944;51.574;6.980;2024-03-07T09:31:31;39.90;;;22.93;;
1887;SDS011;944;51.574;6.980;2024-03-07T09:33:58;41.77;;;23.23;;
1887;SDS011;944;51.574;6.980;2024-03-07T09:36:26;42.23;;;22.07;;
1887;SDS011;944;51.574;6.980;2024-03-07T09:38:53;44.37;;;23.33;;
1887;SDS011;944;51.574;6.980;2024-03-07T09:41:25;35.17;;;21.50;;
1887;SDS011;944;51.574;6.980;2024-03-07T09:43:55;44.57;;;21.60;;
1887;SDS011;944;51.574;6.980;2024-03-07T09:46:24;43.13;;;20.80;;
1887;SDS011;944;51.574;6.980;2024-03-07T09:48:51;31.97;;;21.43;;
1887;SDS011;944;51.574;6.980;2024-03-07T09:51:19;33.63;;;19.60;;
1887;SDS011;944;51.574;6.980;2024-03-07T09:53:48;31.77;;;20.37;;
1887;SDS011;944;51.574;6.980;2024-03-07T09:56:20;45.50;;;21.07;;
1887;SDS011;944;51.574;6.980;2024-03-07T09:58:50;34.20;;;20.70;;
1887;SDS011;944;51.574;6.980;2024-03-07T10:01:21;31.90;;;20.50;;
1887;SDS011;944;51.574;6.980;2024-03-07T10:26:03;30.33;;;20.47;;
1887;SDS011;944;51.574;6.980;2024-03-07T10:43:50;34.10;;;20.97;;
1887;SDS011;944;51.574;6.980;2024-03-07T10:46:28;30.17;;;18.90;;
1887;SDS011;944;51.574;6.980;2024-03-07T10:48:59;33.30;;;20.80;;
1887;SDS011;944;51.574;6.980;2024-03-07T10:51:36;33.50;;;19.90;;
1887;SDS011;944;51.574;6.980;2024-03-07T10:54:18;36.17;;;22.07;;
1887;SDS011;944;51.574;6.980;2024-03-07T10:57:15;33.87;;;21.50;;
1887;SDS011;944;51.574;6.980;2024-03-07T11:00:10;34.57;;;22.97;;
1887;SDS011;944;51.574;6.980;2024-03-07T11:03:02;31.63;;;21.07;;
1887;SDS011;944;51.574;6.980;2024-03-07T11:05:38;33.87;;;20.63;;
1887;SDS011;944;51.574;6.980;2024-03-07T11:08:19;36.30;;;21.87;;
1887;SDS011;944;51.574;6.980;2024-03-07T11:10:58;34.17;;;21.03;;
1887;SDS011;944;51.574;6.980;2024-03-07T11:13:34;42.23;;;22.10;;
1887;SDS011;944;51.574;6.980;2024-03-07T11:16:04;37.70;;;24.47;;
1887;SDS011;944;51.574;6.980;2024-03-07T11:18:35;36.00;;;21.43;;
1887;SDS011;944;51.574;6.980;2024-03-07T11:21:40;30.90;;;20.37;;
1887;SDS011;944;51.574;6.980;2024-03-07T11:24:17;38.43;;;21.90;;
1887;SDS011;944;51.574;6.980;2024-03-07T11:27:02;37.20;;;21.67;;
1887;SDS011;944;51.574;6.980;2024-03-07T11:29:49;33.40;;;21.80;;
1887;SDS011;944;51.574;6.980;2024-03-07T11:32:24;36.00;;;23.87;;
1887;SDS011;944;51.574;6.980;2024-03-07T11:35:05;37.23;;;22.17;;
1887;SDS011;944;51.574;6.980;2024-03-07T11:41:29;33.67;;;22.20;;
1887;SDS011;944;51.574;6.980;2024-03-07T11:44:04;34.10;;;21.50;;
1887;SDS011;944;51.574;6.980;2024-03-07T11:46:38;32.70;;;21.27;;
1887;SDS011;944;51.574;6.980;2024-03-07T11:49:09;36.47;;;21.23;;
1887;SDS011;944;51.574;6.980;2024-03-07T11:51:40;35.60;;;21.17;;
1887;SDS011;944;51.574;6.980;2024-03-07T11:54:09;33.20;;;21.90;;
1887;SDS011;944;51.574;6.980;2024-03-07T11:56:39;33.70;;;21.90;;
1887;SDS011;944;51.574;6.980;2024-03-07T11:59:09;38.20;;;21.90;;
1887;SDS011;944;51.574;6.980;2024-03-07T12:01:38;33.10;;;21.57;;
1887;SDS011;944;51.574;6.980;2024-03-07T12:04:07;35.00;;;21.07;;
1887;SDS011;944;51.574;6.980;2024-03-07T12:06:53;32.50;;;22.23;;
1887;SDS011;944;51.574;6.980;2024-03-07T12:09:20;34.53;;;20.97;;
1887;SDS011;944;51.574;6.980;2024-03-07T12:11:49;38.07;;;22.30;;
1887;SDS011;944;51.574;6.980;2024-03-07T12:14:18;36.57;;;22.97;;
1887;SDS011;944;51.574;6.980;2024-03-07T12:16:47;33.63;;;21.37;;
1887;SDS011;944;51.574;6.980;2024-03-07T12:19:15;37.10;;;22.83;;
1887;SDS011;944;51.574;6.980;2024-03-07T12:21:46;40.00;;;21.40;;
1887;SDS011;944;51.574;6.980;2024-03-07T12:27:59;33.70;;;21.80;;
1887;SDS011;944;51.574;6.980;2024-03-07T12:30:31;33.53;;;22.00;;
1887;SDS011;944;51.574;6.980;2024-03-07T12:33:00;35.83;;;23.50;;
1887;SDS011;944;51.574;6.980;2024-03-07T12:35:33;34.00;;;21.93;;
1887;SDS011;944;51.574;6.980;2024-03-07T12:38:00;34.77;;;22.60;;
1887;SDS011;944;51.574;6.980;2024-03-07T12:40:29;34.77;;;23.37;;
1887;SDS011;944;51.574;6.980;2024-03-07T12:42:59;33.73;;;24.30;;
1887;SDS011;944;51.574;6.980;2024-03-07T12:45:29;32.07;;;21.97;;
1887;SDS011;944;51.574;6.980;2024-03-07T12:48:00;31.37;;;23.60;;
1887;SDS011;944;51.574;6.980;2024-03-07T12:50:29;31.73;;;20.10;;
1887;SDS011;944;51.574;6.980;2024-03-07T12:53:01;30.60;;;20.27;;
1887;SDS011;944;51.574;6.980;2024-03-07T12:59:11;28.13;;;18.80;;
1887;SDS011;944;51.574;6.980;2024-03-07T13:01:38;33.63;;;18.40;;
1887;SDS011;944;51.574;6.980;2024-03-07T13:04:09;32.63;;;17.53;;
1887;SDS011;944;51.574;6.980;2024-03-07T13:06:39;24.63;;;17.13;;
1887;SDS011;944;51.574;6.980;2024-03-07T13:09:12;26.33;;;17.27;;
1887;SDS011;944;51.574;6.980;2024-03-07T13:11:51;25.83;;;17.00;;
1887;SDS011;944;51.574;6.980;2024-03-07T13:14:19;23.77;;;15.83;;
1887;SDS011;944;51.574;6.980;2024-03-07T13:16:48;24.77;;;16.73;;
1887;SDS011;944;51.574;6.980;2024-03-07T13:19:18;24.07;;;17.50;;
1887;SDS011;944;51.574;6.980;2024-03-07T13:22:30;23.60;;;17.50;;
1887;SDS011;944;51.574;6.980;2024-03-07T13:29:00;49.10;;;17.13;;
1887;SDS011;944;51.574;6.980;2024-03-07T13:38:47;22.60;;;15.80;;
1887;SDS011;944;51.574;6.980;2024-03-07T13:41:41;24.73;;;15.63;;
1887;SDS011;944;51.574;6.980;2024-03-07T13:44:39;20.13;;;15.20;;
1887;SDS011;944;51.574;6.980;2024-03-07T13:51:08;25.50;;;13.63;;
1887;SDS011;944;51.574;6.980;2024-03-07T13:53:55;21.60;;;13.97;;
1887;SDS011;944;51.574;6.980;2024-03-07T14:08:26;18.80;;;13.00;;
1887;SDS011;944;51.574;6.980;2024-03-07T14:18:53;19.97;;;11.90;;
1887;SDS011;944;51.574;6.980;2024-03-07T14:22:04;16.83;;;10.63;;
1887;SDS011;944;51.574;6.980;2024-03-07T14:25:03;17.10;;;12.17;;
1887;SDS011;944;51.574;6.980;2024-03-07T15:18:23;17.83;;;10.60;;
1887;SDS011;944;51.574;6.980;2024-03-07T15:20:54;20.73;;;11.47;;
1887;SDS011;944;51.574;6.980;2024-03-07T15:23:46;18.53;;;11.50;;
1887;SDS011;944;51.574;6.980;2024-03-07T15:26:35;25.43;;;13.00;;
1887;SDS011;944;51.574;6.980;2024-03-07T15:32:01;24.57;;;13.80;;
1887;SDS011;944;51.574;6.980;2024-03-07T15:34:33;26.23;;;14.07;;
1887;SDS011;944;51.574;6.980;2024-03-07T15:37:02;25.50;;;15.20;;
1887;SDS011;944;51.574;6.980;2024-03-07T15:43:12;24.20;;;14.67;;
1887;SDS011;944;51.574;6.980;2024-03-07T15:45:45;24.67;;;14.83;;
1887;SDS011;944;51.574;6.980;2024-03-07T15:49:05;24.20;;;14.73;;
1887;SDS011;944;51.574;6.980;2024-03-07T15:52:03;26.53;;;15.20;;
1887;SDS011;944;51.574;6.980;2024-03-07T15:59:06;25.47;;;16.30;;
1887;SDS011;944;51.574;6.980;2024-03-07T16:01:36;27.33;;;16.70;;
1887;SDS011;944;51.574;6.980;2024-03-07T16:04:04;26.40;;;15.83;;
1887;SDS011;944;51.574;6.980;2024-03-07T16:06:33;31.47;;;18.30;;
1887;SDS011;944;51.574;6.980;2024-03-07T16:09:14;28.30;;;16.23;;
1887;SDS011;944;51.574;6.980;2024-03-07T16:11:56;27.37;;;15.90;;
1887;SDS011;944;51.574;6.980;2024-03-07T16:18:20;31.90;;;18.50;;
1887;SDS011;944;51.574;6.980;2024-03-07T16:21:07;38.67;;;19.43;;
1887;SDS011;944;51.574;6.980;2024-03-07T16:23:40;40.80;;;19.30;;
1887;SDS011;944;51.574;6.980;2024-03-07T16:26:17;35.93;;;19.10;;
1887;SDS011;944;51.574;6.980;2024-03-07T16:28:46;39.70;;;18.90;;
1887;SDS011;944;51.574;6.980;2024-03-07T16:31:13;45.40;;;21.40;;
1887;SDS011;944;51.574;6.980;2024-03-07T16:33:44;39.43;;;19.50;;
1887;SDS011;944;51.574;6.980;2024-03-07T16:36:12;38.73;;;20.17;;
1887;SDS011;944;51.574;6.980;2024-03-07T16:38:49;44.20;;;20.10;;
1887;SDS011;944;51.574;6.980;2024-03-07T16:41:18;34.57;;;19.87;;
1887;SDS011;944;51.574;6.980;2024-03-07T16:43:45;39.80;;;20.60;;
1887;SDS011;944;51.574;6.980;2024-03-07T16:46:13;43.23;;;19.97;;
1887;SDS011;944;51.574;6.980;2024-03-07T16:48:45;47.03;;;21.67;;
1887;SDS011;944;51.574;6.980;2024-03-07T16:51:12;37.50;;;19.07;;
1887;SDS011;944;51.574;6.980;2024-03-07T16:53:45;45.23;;;21.30;;
1887;SDS011;944;51.574;6.980;2024-03-07T18:04:58;68.20;;;28.07;;
1887;SDS011;944;51.574;6.980;2024-03-07T18:07:41;59.20;;;29.10;;
1887;SDS011;944;51.574;6.980;2024-03-07T18:10:12;60.47;;;26.80;;
1887;SDS011;944;51.574;6.980;2024-03-07T18:12:52;53.27;;;25.47;;
1887;SDS011;944;51.574;6.980;2024-03-07T18:15:47;60.57;;;26.70;;
1887;SDS011;944;51.574;6.980;2024-03-07T18:18:21;54.43;;;25.20;;
1887;SDS011;944;51.574;6.980;2024-03-07T18:21:00;60.17;;;25.90;;
1887;SDS011;944;51.574;6.980;2024-03-07T18:23:51;63.53;;;29.97;;
1887;SDS011;944;51.574;6.980;2024-03-07T18:26:26;65.53;;;27.10;;
1887;SDS011;944;51.574;6.980;2024-03-07T18:47:10;62.97;;;29.20;;
1887;SDS011;944;51.574;6.980;2024-03-07T18:49:48;59.57;;;25.87;;
